Time;durP1;ratioP1;P1;durP2;ratioP2;P2;SDS_P1;SDS_P2;PMS_P1;PMS_P2;Temp;Humidity;BMP_temperature;BMP_pressure;BME280_temperature;BME280_humidity;BME280_pressure;Samples;Min_cycle;Max_cycle;Signal;HPM_P1;HPM_P2
2023/06/25 00:01:28;;;;;;;9.32;8.43;;;18.30;99.90;;;;;;5095752;28;20043;-31
2023/06/25 00:03:54;;;;;;;12.30;8.38;;;18.30;99.90;;;;;;5112939;28;20057;-31
2023/06/25 00:06:19;;;;;;;9.27;8.00;;;18.20;99.90;;;;;;5112723;28;20038;-31
2023/06/25 00:08:46;;;;;;;10.10;7.75;;;18.20;99.90;;;;;;5130704;28;20031;-30
2023/06/25 00:11:12;;;;;;;8.82;8.02;;;18.20;99.90;;;;;;5130746;28;20043;-31
2023/06/25 00:13:37;;;;;;;10.25;8.32;;;18.20;99.90;;;;;;5139056;27;20068;-31
2023/06/25 00:16:03;;;;;;;8.80;7.90;;;18.20;99.90;;;;;;5151701;27;20483;-31
2023/06/25 00:18:29;;;;;;;10.23;8.50;;;18.20;99.90;;;;;;5154210;27;20070;-31
2023/06/25 00:20:55;;;;;;;8.95;8.05;;;18.10;99.90;;;;;;5155232;27;20093;-29
2023/06/25 00:23:21;;;;;;;10.05;8.88;;;18.10;99.90;;;;;;5155310;27;20087;-31
2023/06/25 00:25:47;;;;;;;9.02;8.13;;;18.10;99.90;;;;;;5155680;27;20488;-30
2023/06/25 00:28:13;;;;;;;9.93;8.32;;;18.10;99.90;;;;;;5155340;27;20047;-30
2023/06/25 00:30:39;;;;;;;10.25;9.15;;;18.10;99.90;;;;;;5152196;27;20389;-31
2023/06/25 00:33:05;;;;;;;10.00;8.73;;;18.10;99.90;;;;;;5114214;28;20378;-31
2023/06/25 00:35:49;;;;;;;11.35;9.13;;;18.00;99.90;;;;;;5113899;28;20118;-31
2023/06/25 00:38:15;;;;;;;10.45;9.35;;;18.00;99.90;;;;;;5113921;28;20119;-30
2023/06/25 00:40:41;;;;;;;9.80;8.80;;;17.90;99.90;;;;;;5114046;28;20078;-31
2023/06/25 00:43:07;;;;;;;10.77;8.43;;;18.00;99.90;;;;;;5114156;28;20105;-31
2023/06/25 00:45:34;;;;;;;10.13;8.60;;;18.00;99.90;;;;;;5114052;28;20173;-31
2023/06/25 00:48:01;;;;;;;13.60;9.88;;;17.90;99.90;;;;;;5120952;27;20050;-31
2023/06/25 00:50:26;;;;;;;11.20;10.10;;;17.90;99.90;;;;;;5130073;27;20117;-31
2023/06/25 00:52:57;;;;;;;11.50;9.65;;;17.90;99.90;;;;;;5117530;27;20545;-31
2023/06/25 00:55:24;;;;;;;12.57;10.02;;;17.90;99.90;;;;;;5134534;27;20130;-31
2023/06/25 00:57:51;;;;;;;10.98;9.38;;;17.80;99.90;;;;;;5133999;27;20043;-31
2023/06/25 01:00:18;;;;;;;10.63;9.52;;;17.80;99.90;;;;;;5115996;27;20099;-31
2023/06/25 01:02:49;;;;;;;11.98;10.02;;;17.80;99.90;;;;;;5134059;27;20049;-31
2023/06/25 01:05:22;;;;;;;10.77;9.65;;;17.80;99.90;;;;;;5133908;27;20480;-31
2023/06/25 01:07:49;;;;;;;10.63;9.43;;;17.80;99.90;;;;;;5115471;27;20483;-31
2023/06/25 01:10:15;;;;;;;11.40;9.25;;;17.80;99.90;;;;;;5133820;27;20463;-31
2023/06/25 01:12:42;;;;;;;11.02;9.88;;;17.80;99.90;;;;;;5134043;27;20480;-31
2023/06/25 01:15:11;;;;;;;12.75;9.90;;;17.80;99.90;;;;;;5134351;27;20045;-31
2023/06/25 01:17:39;;;;;;;12.82;10.15;;;17.80;99.90;;;;;;5134049;27;20498;-31
2023/06/25 01:20:08;;;;;;;11.18;10.02;;;17.70;99.90;;;;;;5114959;27;20042;-31
2023/06/25 01:22:34;;;;;;;11.98;10.48;;;17.70;99.90;;;;;;5115822;27;20335;-31
2023/06/25 01:25:00;;;;;;;13.50;10.23;;;17.70;99.90;;;;;;5133885;27;20484;-31
2023/06/25 01:27:26;;;;;;;11.73;10.43;;;17.60;99.90;;;;;;5133921;27;20043;-31
2023/06/25 01:29:53;;;;;;;12.95;10.95;;;17.60;99.90;;;;;;5132248;27;20133;-31
2023/06/25 01:32:19;;;;;;;11.75;10.52;;;17.60;99.90;;;;;;5133419;27;20043;-31
2023/06/25 01:34:45;;;;;;;15.23;11.52;;;17.60;99.90;;;;;;5132882;27;20380;-30
2023/06/25 01:37:11;;;;;;;12.30;10.68;;;17.60;99.90;;;;;;5133291;27;20046;-30
2023/06/25 01:39:38;;;;;;;12.52;11.23;;;17.60;99.90;;;;;;5133283;27;20043;-31
2023/06/25 01:42:04;;;;;;;12.57;11.20;;;17.60;99.90;;;;;;5132684;27;20039;-30
2023/06/25 01:44:31;;;;;;;14.30;11.80;;;17.50;99.90;;;;;;5133201;27;20046;-31
2023/06/25 01:46:58;;;;;;;15.65;13.27;;;17.50;99.90;;;;;;5132961;27;20404;-31
2023/06/25 01:49:24;;;;;;;14.77;11.38;;;17.50;99.90;;;;;;5133092;27;20038;-31
2023/06/25 01:51:50;;;;;;;14.90;11.80;;;17.50;99.90;;;;;;5132641;27;20118;-31
2023/06/25 01:54:16;;;;;;;15.02;12.43;;;17.50;99.90;;;;;;5133072;27;20176;-31
2023/06/25 01:56:42;;;;;;;17.80;12.38;;;17.50;99.90;;;;;;5133156;27;20036;-31
2023/06/25 01:59:09;;;;;;;16.85;13.32;;;17.40;99.90;;;;;;5132688;27;20043;-30
2023/06/25 02:01:35;;;;;;;14.80;12.30;;;17.50;99.90;;;;;;5133065;27;20039;-31
2023/06/25 02:04:00;;;;;;;16.05;12.93;;;17.40;99.90;;;;;;5114202;27;20438;-31
2023/06/25 02:06:26;;;;;;;14.95;12.20;;;17.40;99.90;;;;;;5132799;27;20061;-31
2023/06/25 02:08:52;;;;;;;14.73;12.65;;;17.40;99.90;;;;;;5132892;27;20452;-31
2023/06/25 02:11:17;;;;;;;17.15;12.90;;;17.30;99.90;;;;;;5114117;27;20043;-31
2023/06/25 02:13:43;;;;;;;16.80;13.32;;;17.30;99.90;;;;;;5132991;27;20085;-31
2023/06/25 02:16:09;;;;;;;18.15;13.60;;;17.30;99.90;;;;;;5133253;27;20031;-31
2023/06/25 02:18:35;;;;;;;16.58;13.95;;;17.30;99.90;;;;;;5133368;27;20035;-31
2023/06/25 02:21:01;;;;;;;18.17;14.32;;;17.30;99.90;;;;;;5133180;27;20076;-31
2023/06/25 02:23:27;;;;;;;17.73;15.27;;;17.20;99.90;;;;;;5133388;27;20039;-31
2023/06/25 02:25:52;;;;;;;17.33;14.63;;;17.10;99.90;;;;;;5132442;27;20035;-31
2023/06/25 02:28:18;;;;;;;17.95;14.75;;;17.10;99.90;;;;;;5132475;27;20408;-31
2023/06/25 02:30:44;;;;;;;17.27;14.77;;;17.10;99.90;;;;;;5132021;27;20119;-31
2023/06/25 02:33:10;;;;;;;19.20;16.02;;;17.10;99.90;;;;;;5113251;27;20038;-31
2023/06/25 02:35:36;;;;;;;19.65;14.18;;;17.10;99.90;;;;;;5131464;27;20066;-31
2023/06/25 02:38:01;;;;;;;17.02;13.57;;;17.10;99.90;;;;;;5131276;27;20098;-31
2023/06/25 02:40:27;;;;;;;20.38;15.45;;;17.10;99.90;;;;;;5111638;27;20114;-31
2023/06/25 02:42:53;;;;;;;20.40;15.45;;;17.10;99.90;;;;;;5130931;27;20035;-31
2023/06/25 02:45:19;;;;;;;17.52;14.65;;;17.10;99.90;;;;;;5130983;27;20422;-31
2023/06/25 02:47:45;;;;;;;17.58;15.48;;;17.10;99.90;;;;;;5130664;27;20076;-31
2023/06/25 02:50:11;;;;;;;21.65;16.17;;;17.00;99.90;;;;;;5130730;27;20039;-29
2023/06/25 02:52:37;;;;;;;20.17;15.82;;;17.00;99.90;;;;;;5118624;27;20446;-31
2023/06/25 02:55:03;;;;;;;18.48;14.95;;;17.00;99.90;;;;;;5110122;28;20042;-31
2023/06/25 02:57:29;;;;;;;17.23;14.90;;;17.00;99.90;;;;;;5110196;28;20043;-30
2023/06/25 02:59:55;;;;;;;18.52;15.25;;;17.00;99.90;;;;;;5110346;28;20404;-31
2023/06/25 03:02:21;;;;;;;19.08;15.52;;;17.00;99.90;;;;;;5109845;28;20039;-30
2023/06/25 03:04:47;;;;;;;17.70;14.73;;;17.00;99.90;;;;;;5109978;28;20123;-31
2023/06/25 03:07:12;;;;;;;20.70;15.63;;;17.00;99.90;;;;;;5109574;28;20080;-31
2023/06/25 03:09:38;;;;;;;18.42;15.30;;;17.00;99.90;;;;;;5110632;28;20043;-31
2023/06/25 03:12:04;;;;;;;17.90;15.18;;;17.00;99.90;;;;;;5110019;28;20490;-31
2023/06/25 03:14:30;;;;;;;21.10;15.40;;;17.00;99.90;;;;;;5110449;28;20039;-31
2023/06/25 03:16:56;;;;;;;22.20;16.25;;;17.00;99.90;;;;;;5110446;28;20093;-31
2023/06/25 03:19:22;;;;;;;17.73;15.45;;;17.00;99.90;;;;;;5118334;27;20046;-31
2023/06/25 03:21:48;;;;;;;20.90;15.15;;;16.90;99.90;;;;;;5131046;28;20106;-29
2023/06/25 03:24:13;;;;;;;19.33;15.27;;;16.90;99.90;;;;;;5130745;28;20091;-31
2023/06/25 03:26:39;;;;;;;18.42;14.25;;;16.90;99.90;;;;;;5130898;28;20088;-31
2023/06/25 03:29:05;;;;;;;19.08;14.13;;;16.90;99.90;;;;;;5130665;28;20133;-31
2023/06/25 03:31:31;;;;;;;18.65;13.75;;;16.90;99.90;;;;;;5130395;28;20035;-31
2023/06/25 03:33:57;;;;;;;18.10;14.05;;;16.90;99.90;;;;;;5130913;28;20039;-31
2023/06/25 03:36:22;;;;;;;18.73;14.90;;;17.00;99.90;;;;;;5112140;28;20039;-31
2023/06/25 03:38:48;;;;;;;16.85;14.75;;;17.00;99.90;;;;;;5130868;28;20035;-30
2023/06/25 03:41:14;;;;;;;18.63;13.98;;;17.00;99.90;;;;;;5111862;28;20104;-31
2023/06/25 03:43:39;;;;;;;16.90;14.02;;;17.00;99.90;;;;;;5130772;28;20110;-31
2023/06/25 03:46:13;;;;;;;17.00;13.75;;;17.00;99.90;;;;;;5130401;28;20601;-31
2023/06/25 03:48:41;;;;;;;17.17;14.23;;;16.90;99.90;;;;;;5130744;28;20047;-31
2023/06/25 03:51:06;;;;;;;17.90;14.00;;;16.90;99.90;;;;;;5130644;28;20031;-30
2023/06/25 03:53:35;;;;;;;14.27;12.77;;;16.90;99.90;;;;;;5125131;27;20416;-31
2023/06/25 03:56:00;;;;;;;17.10;14.18;;;16.90;99.90;;;;;;5114256;28;20438;-30
2023/06/25 03:58:26;;;;;;;15.75;13.07;;;17.00;99.90;;;;;;5114296;28;20042;-31
2023/06/25 04:00:52;;;;;;;17.17;13.27;;;17.00;99.90;;;;;;5113915;28;20046;-31
2023/06/25 04:03:17;;;;;;;16.23;13.05;;;17.00;99.90;;;;;;5114310;28;20123;-31
2023/06/25 04:05:45;;;;;;;16.85;12.85;;;17.00;99.90;;;;;;5113992;28;20032;-31
2023/06/25 04:08:11;;;;;;;17.88;13.85;;;17.10;99.90;;;;;;5113857;28;20032;-30
2023/06/25 04:10:38;;;;;;;14.85;12.05;;;17.10;99.90;;;;;;5114072;28;20042;-31
2023/06/25 04:13:04;;;;;;;14.35;11.65;;;17.10;99.90;;;;;;5114762;27;20031;-31
2023/06/25 04:15:29;;;;;;;16.38;11.77;;;17.20;99.90;;;;;;5112108;28;20035;-31
2023/06/25 04:17:55;;;;;;;16.02;13.20;;;17.20;99.90;;;;;;5113635;28;20062;-31
2023/06/25 04:20:23;;;;;;;16.63;11.75;;;17.20;99.90;;;;;;5113815;28;20229;-31
2023/06/25 04:22:48;;;;;;;13.63;11.70;;;17.20;99.90;;;;;;5114686;27;20043;-31
2023/06/25 04:25:14;;;;;;;14.13;11.95;;;17.30;99.90;;;;;;5095504;28;20549;-30
2023/06/25 04:27:40;;;;;;;15.20;12.25;;;17.30;99.90;;;;;;5113455;28;20515;-31
2023/06/25 04:30:06;;;;;;;14.85;12.27;;;17.30;99.90;;;;;;5094964;28;20480;-30
2023/06/25 04:32:32;;;;;;;14.93;12.30;;;17.40;99.90;;;;;;5113779;28;20048;-30
2023/06/25 04:34:58;;;;;;;14.40;11.80;;;17.40;99.90;;;;;;5113701;28;20040;-31
2023/06/25 04:37:24;;;;;;;15.00;12.55;;;17.50;99.90;;;;;;5113586;28;20041;-30
2023/06/25 04:39:50;;;;;;;14.77;11.82;;;17.50;99.90;;;;;;5113287;28;20044;-30
2023/06/25 04:42:15;;;;;;;14.73;12.13;;;17.50;99.90;;;;;;5112210;28;20097;-31
2023/06/25 04:44:41;;;;;;;14.23;11.38;;;17.60;99.90;;;;;;5113590;28;20036;-31
2023/06/25 04:47:07;;;;;;;13.82;12.13;;;17.70;99.90;;;;;;5115521;27;20398;-32
2023/06/25 04:49:32;;;;;;;14.32;11.38;;;17.70;99.90;;;;;;5119228;27;20037;-31
2023/06/25 04:51:58;;;;;;;15.10;12.13;;;17.80;99.90;;;;;;5120978;27;20061;-32
2023/06/25 04:54:24;;;;;;;15.50;12.43;;;17.80;99.90;;;;;;5121860;27;20570;-33
2023/06/25 04:56:49;;;;;;;14.63;11.20;;;17.80;99.90;;;;;;5130515;27;20521;-31
2023/06/25 04:59:15;;;;;;;14.10;11.85;;;17.90;99.90;;;;;;5127555;27;20088;-32
2023/06/25 05:01:40;;;;;;;13.52;11.60;;;18.00;99.90;;;;;;5131689;27;20395;-31
2023/06/25 05:04:06;;;;;;;14.07;12.07;;;18.00;99.90;;;;;;5126937;27;20047;-31
2023/06/25 05:06:32;;;;;;;11.70;10.48;;;18.10;99.90;;;;;;5130873;27;20197;-31
2023/06/25 05:08:57;;;;;;;16.35;12.05;;;18.10;99.90;;;;;;5112908;28;20043;-31
2023/06/25 05:11:23;;;;;;;15.15;12.73;;;18.20;99.90;;;;;;5126776;27;20039;-31
2023/06/25 05:13:49;;;;;;;16.17;12.70;;;18.30;99.90;;;;;;5133321;27;20549;-30
2023/06/25 05:16:15;;;;;;;14.52;12.15;;;18.40;99.90;;;;;;5114933;27;20108;-31
2023/06/25 05:18:41;;;;;;;14.82;11.63;;;18.40;99.90;;;;;;5133219;27;20038;-31
2023/06/25 05:21:07;;;;;;;14.65;12.82;;;18.50;99.90;;;;;;5133276;27;20039;-31
2023/06/25 05:23:44;;;;;;;16.65;14.05;;;18.60;99.90;;;;;;5133341;27;20072;-29
2023/06/25 05:26:10;;;;;;;15.80;12.98;;;18.60;99.90;;;;;;5114218;27;20066;-31
2023/06/25 05:28:35;;;;;;;16.40;13.98;;;18.70;99.90;;;;;;5132656;27;20046;-31
2023/06/25 05:31:01;;;;;;;18.30;14.20;;;18.80;99.90;;;;;;5132688;27;20139;-31
2023/06/25 05:33:27;;;;;;;17.50;13.15;;;18.90;99.90;;;;;;5133215;27;20047;-31
2023/06/25 05:35:52;;;;;;;16.38;13.27;;;19.00;99.90;;;;;;5132926;27;20080;-31
2023/06/25 05:38:18;;;;;;;16.58;14.45;;;19.10;99.90;;;;;;5132531;27;20392;-31
2023/06/25 05:40:44;;;;;;;18.55;13.93;;;19.20;99.90;;;;;;5131862;27;20051;-30
2023/06/25 05:43:09;;;;;;;15.13;12.57;;;19.40;99.90;;;;;;5132631;27;20043;-30
2023/06/25 05:45:35;;;;;;;17.42;13.57;;;19.50;99.90;;;;;;5132569;27;20043;-30
2023/06/25 05:48:01;;;;;;;17.80;14.77;;;19.60;99.90;;;;;;5132179;27;20043;-30
2023/06/25 05:50:26;;;;;;;16.10;14.40;;;19.70;99.90;;;;;;5132197;27;20180;-30
2023/06/25 05:52:52;;;;;;;17.80;15.32;;;19.80;99.90;;;;;;5132481;27;20035;-30
2023/06/25 05:55:18;;;;;;;17.23;14.60;;;19.90;99.90;;;;;;5113747;27;20168;-29
2023/06/25 05:57:43;;;;;;;18.08;15.45;;;20.10;99.90;;;;;;5113503;27;20058;-30
2023/06/25 06:00:09;;;;;;;17.13;15.35;;;20.20;99.90;;;;;;5132266;27;20112;-30
2023/06/25 06:02:35;;;;;;;20.95;16.40;;;20.30;99.90;;;;;;5132180;27;20441;-30
2023/06/25 06:05:01;;;;;;;18.40;16.30;;;20.40;99.90;;;;;;5132085;27;20060;-31
2023/06/25 06:07:27;;;;;;;20.83;16.52;;;20.50;99.90;;;;;;5131411;27;20043;-30
2023/06/25 06:09:52;;;;;;;18.67;16.38;;;20.60;99.90;;;;;;5131757;27;20069;-29
2023/06/25 06:12:18;;;;;;;17.80;15.57;;;20.70;99.90;;;;;;5112887;27;20096;-31
2023/06/25 06:14:44;;;;;;;17.48;15.15;;;20.80;99.90;;;;;;5131383;27;20697;-30
2023/06/25 06:17:09;;;;;;;18.35;16.45;;;20.90;99.90;;;;;;5131304;27;20066;-31
2023/06/25 06:19:35;;;;;;;17.23;15.45;;;21.00;99.90;;;;;;5131934;27;20058;-31
2023/06/25 06:22:01;;;;;;;19.98;17.80;;;21.10;99.90;;;;;;5126990;27;20032;-31
2023/06/25 06:24:27;;;;;;;18.52;16.52;;;21.20;99.90;;;;;;5122211;27;20545;-30
2023/06/25 06:26:53;;;;;;;18.63;16.67;;;21.30;99.90;;;;;;5131302;27;20034;-29
2023/06/25 06:29:19;;;;;;;20.13;18.05;;;21.40;99.90;;;;;;5131249;27;20088;-31
2023/06/25 06:31:45;;;;;;;18.08;16.17;;;21.50;99.90;;;;;;5131491;27;20742;-31
2023/06/25 06:34:11;;;;;;;20.05;17.33;;;21.60;99.90;;;;;;5131347;27;20157;-31
2023/06/25 06:36:37;;;;;;;20.23;17.83;;;21.60;99.90;;;;;;5131791;27;20070;-31
2023/06/25 06:39:02;;;;;;;20.02;17.92;;;21.70;99.90;;;;;;5112596;27;20051;-30
2023/06/25 06:41:28;;;;;;;20.98;18.80;;;21.90;99.90;;;;;;5124860;27;20040;-31
2023/06/25 06:44:10;;;;;;;17.95;16.15;;;21.90;99.90;;;;;;5110942;28;20437;-31
2023/06/25 06:46:36;;;;;;;21.38;17.08;;;22.10;99.90;;;;;;5111378;28;20542;-30
2023/06/25 06:49:01;;;;;;;20.30;18.23;;;22.20;99.90;;;;;;5128977;27;20039;-31
2023/06/25 06:51:27;;;;;;;20.80;18.73;;;22.30;99.90;;;;;;5131225;27;20035;-29
2023/06/25 06:53:53;;;;;;;17.70;15.90;;;22.40;99.90;;;;;;5131550;27;20640;-31
2023/06/25 06:56:18;;;;;;;20.27;18.27;;;22.60;99.90;;;;;;5118037;27;20027;-31
2023/06/25 06:58:44;;;;;;;19.80;17.90;;;22.70;99.90;;;;;;5111240;28;20066;-30
2023/06/25 07:01:09;;;;;;;19.05;17.25;;;22.80;99.90;;;;;;5111315;27;20058;-29
2023/06/25 07:03:35;;;;;;;19.58;17.40;;;22.90;99.90;;;;;;5131342;27;20365;-31
2023/06/25 07:06:01;;;;;;;21.27;19.08;;;23.10;99.90;;;;;;5130857;27;20039;-31
2023/06/25 07:08:26;;;;;;;18.70;16.80;;;23.20;99.90;;;;;;5131925;27;20038;-31
2023/06/25 07:10:52;;;;;;;19.65;17.58;;;23.30;99.90;;;;;;5131122;27;20035;-30
2023/06/25 07:13:18;;;;;;;18.05;16.08;;;23.50;99.90;;;;;;5131219;27;20080;-31
2023/06/25 07:15:43;;;;;;;19.83;17.92;;;23.60;99.90;;;;;;5140710;27;20068;-31
2023/06/25 07:18:09;;;;;;;19.60;17.80;;;23.80;99.90;;;;;;5151944;27;20077;-31
2023/06/25 07:20:35;;;;;;;21.70;19.55;;;23.90;99.90;;;;;;5146467;27;20050;-31
2023/06/25 07:23:00;;;;;;;20.10;17.88;;;24.00;99.90;;;;;;5118336;28;20046;-30
2023/06/25 07:25:26;;;;;;;18.95;17.08;;;24.00;99.90;;;;;;5130758;28;20035;-32
2023/06/25 07:27:51;;;;;;;18.20;16.35;;;24.20;99.90;;;;;;5120934;27;20673;-33
2023/06/25 07:30:17;;;;;;;18.73;16.80;;;24.20;99.90;;;;;;5124022;27;20038;-33
2023/06/25 07:32:43;;;;;;;16.90;15.13;;;24.40;99.90;;;;;;5116969;27;20069;-33
2023/06/25 07:35:09;;;;;;;16.77;15.10;;;24.50;99.90;;;;;;5114264;28;20039;-33
2023/06/25 07:37:34;;;;;;;18.20;16.48;;;24.60;99.90;;;;;;5120923;27;20046;-33
2023/06/25 07:40:00;;;;;;;17.50;15.80;;;24.70;99.90;;;;;;5118451;28;20081;-33
2023/06/25 07:42:26;;;;;;;16.90;15.40;;;24.90;99.90;;;;;;5105218;28;20043;-32
2023/06/25 07:44:51;;;;;;;17.42;15.07;;;25.00;99.90;;;;;;5109637;27;20241;-33
2023/06/25 07:47:17;;;;;;;17.17;15.63;;;25.00;99.90;;;;;;5108472;27;20036;-33
2023/06/25 07:49:43;;;;;;;17.08;15.25;;;25.10;99.90;;;;;;5119037;27;20032;-33
2023/06/25 07:52:08;;;;;;;18.42;16.63;;;25.20;99.90;;;;;;5123669;27;20023;-34
2023/06/25 07:54:34;;;;;;;16.10;14.48;;;25.30;99.90;;;;;;5109576;27;20027;-33
2023/06/25 07:57:00;;;;;;;16.05;14.55;;;25.40;99.90;;;;;;5096853;28;20041;-33
2023/06/25 07:59:25;;;;;;;15.52;14.02;;;25.60;99.90;;;;;;5107719;27;20063;-33
2023/06/25 08:01:51;;;;;;;13.35;12.13;;;25.80;99.90;;;;;;5108130;27;20036;-33
2023/06/25 08:04:17;;;;;;;14.75;13.32;;;26.00;99.90;;;;;;5122757;27;20047;-33
2023/06/25 08:06:42;;;;;;;15.52;14.02;;;26.10;99.90;;;;;;5109035;28;20116;-32
2023/06/25 08:09:09;;;;;;;13.40;12.10;;;26.20;99.90;;;;;;5118845;27;20463;-32
2023/06/25 08:11:36;;;;;;;12.30;11.23;;;26.30;99.90;;;;;;5095410;27;20066;-32
2023/06/25 08:14:01;;;;;;;15.85;13.57;;;26.50;99.90;;;;;;5111464;27;20163;-32
2023/06/25 08:16:34;;;;;;;12.77;11.68;;;26.60;99.90;;;;;;5108109;27;20511;-32
2023/06/25 08:19:00;;;;;;;13.40;12.10;;;26.90;99.90;;;;;;5120422;27;20472;-32
2023/06/25 08:21:26;;;;;;;11.23;10.23;;;27.00;99.90;;;;;;5121281;27;20045;-32
2023/06/25 08:24:00;;;;;;;13.13;11.82;;;27.20;99.90;;;;;;5098862;28;20039;-32
2023/06/25 08:26:26;;;;;;;12.32;11.10;;;27.30;99.90;;;;;;5114902;27;20114;-33
2023/06/25 08:28:52;;;;;;;10.93;9.93;;;27.50;99.90;;;;;;5115376;27;20036;-32
2023/06/25 08:32:14;;;;;;;13.38;9.80;;;27.60;99.90;;;;;;5072171;23;20163;-89
2023/06/25 08:35:07;;;;;;;11.90;10.80;;;27.80;99.90;;;;;;5060789;28;20459;-89
2023/06/25 08:37:34;;;;;;;10.55;9.48;;;27.90;99.90;;;;;;5052736;28;20078;-87
2023/06/25 08:39:59;;;;;;;10.10;8.63;;;28.10;99.90;;;;;;5063934;28;20570;-86
2023/06/25 08:42:26;;;;;;;8.55;7.85;;;28.10;99.90;;;;;;5036336;28;20080;-87
2023/06/25 08:44:52;;;;;;;10.20;7.75;;;28.20;99.60;;;;;;5039046;28;20040;-88
2023/06/25 08:47:26;;;;;;;8.00;7.20;;;28.30;99.50;;;;;;5051598;28;20064;-88
2023/06/25 08:49:53;;;;;;;8.98;6.72;;;28.50;96.60;;;;;;5049045;28;20509;-88
2023/06/25 08:52:23;;;;;;;7.03;6.43;;;28.70;94.90;;;;;;5030428;28;20120;-88
2023/06/25 08:54:49;;;;;;;6.80;6.15;;;28.80;92.50;;;;;;5050272;28;20029;-88
2023/06/25 08:57:16;;;;;;;7.10;5.93;;;28.90;92.50;;;;;;5049659;28;20041;-88
2023/06/25 08:59:41;;;;;;;7.70;6.82;;;29.10;90.90;;;;;;5033868;28;20087;-88
2023/06/25 09:02:07;;;;;;;6.60;6.07;;;29.30;88.70;;;;;;5051307;28;20127;-87
2023/06/25 09:04:33;;;;;;;6.40;5.85;;;29.60;86.50;;;;;;5034770;28;21374;-88
2023/06/25 09:07:09;;;;;;;5.93;5.32;;;29.70;79.40;;;;;;5052569;28;20411;-88
2023/06/25 09:09:34;;;;;;;5.70;5.20;;;29.80;74.60;;;;;;5053314;28;20367;-87
2023/06/25 09:12:00;;;;;;;6.97;5.32;;;30.00;76.30;;;;;;5036294;28;20037;-88
2023/06/25 09:14:26;;;;;;;5.97;5.47;;;30.00;71.70;;;;;;5052463;28;20037;-87
2023/06/25 09:16:54;;;;;;;6.18;5.57;;;30.20;70.80;;;;;;5041337;28;20514;-88
2023/06/25 09:19:21;;;;;;;7.38;5.47;;;30.30;66.20;;;;;;5066658;28;20446;-87
2023/06/25 09:21:48;;;;;;;5.68;5.15;;;30.50;63.20;;;;;;5035633;28;20041;-88
2023/06/25 09:24:15;;;;;;;7.50;5.85;;;30.70;62.90;;;;;;5028162;28;20122;-88
2023/06/25 09:26:47;;;;;;;6.47;5.82;;;30.80;61.50;;;;;;5050825;28;20049;-88
2023/06/25 09:29:17;;;;;;;6.20;5.60;;;30.80;58.30;;;;;;5051665;28;20045;-88
2023/06/25 09:31:46;;;;;;;6.50;5.80;;;31.00;60.50;;;;;;5035889;28;20406;-88
2023/06/25 09:34:15;;;;;;;6.47;5.00;;;31.20;61.20;;;;;;5046152;28;20033;-88
2023/06/25 09:36:40;;;;;;;6.20;5.60;;;31.40;61.50;;;;;;5043116;28;20391;-88
2023/06/25 09:39:08;;;;;;;6.15;5.55;;;31.30;59.40;;;;;;5049659;28;20048;-88
2023/06/25 09:41:34;;;;;;;6.57;5.38;;;31.50;58.80;;;;;;5052158;28;20046;-88
2023/06/25 09:44:05;;;;;;;6.10;5.40;;;31.60;58.20;;;;;;5034256;28;20036;-88
2023/06/25 09:46:36;;;;;;;5.78;5.28;;;31.80;57.10;;;;;;5035345;28;20059;-87
2023/06/25 09:49:02;;;;;;;6.22;5.63;;;31.90;55.60;;;;;;5034882;28;20043;-88
2023/06/25 09:51:58;;;;;;;6.35;5.75;;;31.80;55.20;;;;;;5050957;28;20079;-88
2023/06/25 09:54:25;;;;;;;5.25;4.75;;;32.00;53.30;;;;;;5051007;28;20435;-88
2023/06/25 09:56:52;;;;;;;7.45;6.07;;;31.90;53.40;;;;;;5051520;28;20037;-89
2023/06/25 09:59:18;;;;;;;6.38;5.78;;;31.80;51.90;;;;;;5049000;28;20407;-88
2023/06/25 10:01:43;;;;;;;6.07;5.30;;;31.80;51.10;;;;;;5053387;28;20091;-88
2023/06/25 10:04:09;;;;;;;7.82;6.18;;;31.80;50.50;;;;;;5048202;28;20033;-88
2023/06/25 10:06:36;;;;;;;7.20;6.53;;;31.80;50.20;;;;;;5051291;28;20041;-89
2023/06/25 10:09:03;;;;;;;6.65;5.35;;;31.90;49.50;;;;;;5051405;28;20049;-88
2023/06/25 10:11:29;;;;;;;6.07;5.47;;;32.20;51.10;;;;;;5034260;28;20070;-88
2023/06/25 10:13:57;;;;;;;5.55;4.85;;;32.30;50.30;;;;;;5034045;28;20123;-88
2023/06/25 10:16:22;;;;;;;6.13;5.53;;;32.70;51.90;;;;;;5036549;28;20040;-88
2023/06/25 10:18:53;;;;;;;6.43;5.68;;;32.90;50.70;;;;;;5033978;28;20041;-89
2023/06/25 10:21:21;;;;;;;6.97;5.43;;;33.20;50.70;;;;;;5032619;28;20045;-88
2023/06/25 10:23:58;;;;;;;6.20;5.60;;;33.30;49.50;;;;;;5050667;28;20033;-89
2023/06/25 10:26:32;;;;;;;6.72;5.25;;;33.50;49.30;;;;;;5032020;28;20029;-88
2023/06/25 10:29:06;;;;;;;6.70;5.65;;;33.60;48.40;;;;;;5048684;28;20044;-89
2023/06/25 10:31:39;;;;;;;6.45;5.85;;;33.50;47.20;;;;;;5051711;28;20158;-88
2023/06/25 10:34:06;;;;;;;6.68;5.35;;;33.50;45.10;;;;;;5033041;28;20047;-88
2023/06/25 10:36:32;;;;;;;6.60;5.72;;;33.30;44.00;;;;;;5029402;28;20136;-88
2023/06/25 10:38:58;;;;;;;5.47;4.97;;;33.50;44.20;;;;;;5050189;28;20136;-88
2023/06/25 10:41:31;;;;;;;5.22;4.72;;;33.50;44.30;;;;;;5051635;28;20043;-88
2023/06/25 10:43:58;;;;;;;7.07;5.10;;;33.90;45.70;;;;;;5033582;28;20548;-87
2023/06/25 10:46:31;;;;;;;5.35;4.95;;;34.20;45.90;;;;;;5051102;28;20051;-88
2023/06/25 10:49:00;;;;;;;5.32;4.82;;;34.40;44.70;;;;;;5050427;28;20072;-88
2023/06/25 10:51:27;;;;;;;4.82;4.43;;;34.50;43.80;;;;;;5050978;28;20047;-88
2023/06/25 10:53:56;;;;;;;4.85;4.45;;;34.50;44.20;;;;;;5041477;28;20570;-88
2023/06/25 10:56:23;;;;;;;5.55;4.70;;;34.50;44.00;;;;;;5028443;28;20040;-88
2023/06/25 10:58:56;;;;;;;4.93;4.32;;;34.70;43.90;;;;;;5033790;28;20072;-88
2023/06/25 11:01:21;;;;;;;5.32;4.93;;;34.80;44.30;;;;;;5043085;28;20041;-87
2023/06/25 11:03:47;;;;;;;5.40;4.90;;;34.60;44.60;;;;;;5050742;28;20103;-89
2023/06/25 11:06:13;;;;;;;5.20;4.80;;;34.60;43.70;;;;;;5033929;28;20183;-87
2023/06/25 11:08:42;;;;;;;5.47;4.97;;;34.60;43.90;;;;;;5034239;28;20045;-88
2023/06/25 11:11:07;;;;;;;5.50;4.82;;;34.60;44.10;;;;;;5050670;28;20076;-89
2023/06/25 11:13:33;;;;;;;5.03;4.53;;;34.70;44.60;;;;;;5034324;28;20040;-85
2023/06/25 11:15:58;;;;;;;5.55;5.15;;;34.90;44.60;;;;;;5034343;28;20502;-85
2023/06/25 11:18:24;;;;;;;5.05;4.65;;;35.00;44.30;;;;;;5048170;28;20037;-86
2023/06/25 11:20:50;;;;;;;5.63;5.10;;;35.40;45.10;;;;;;5033987;28;20656;-86
2023/06/25 11:23:16;;;;;;;5.30;4.90;;;35.30;45.20;;;;;;5032570;28;20035;-86
2023/06/25 11:25:42;;;;;;;5.03;4.53;;;35.30;44.80;;;;;;5050676;28;20033;-86
2023/06/25 11:28:11;;;;;;;5.15;4.75;;;34.90;43.60;;;;;;5034692;28;20068;-86
2023/06/25 11:30:37;;;;;;;5.50;4.97;;;34.70;43.90;;;;;;5047606;28;20469;-87
2023/06/25 11:33:21;;;;;;;5.15;4.75;;;34.50;42.50;;;;;;5034416;28;20052;-87
2023/06/25 11:35:50;;;;;;;5.10;4.70;;;34.80;43.20;;;;;;5032395;28;20112;-86
2023/06/25 11:38:33;;;;;;;4.78;4.38;;;35.00;43.70;;;;;;5034796;28;20491;-86
2023/06/25 11:40:59;;;;;;;6.30;5.70;;;35.30;42.70;;;;;;5031440;28;20483;-86
2023/06/25 11:43:26;;;;;;;5.65;5.15;;;35.40;43.40;;;;;;5043648;28;20058;-85
2023/06/25 11:45:52;;;;;;;5.25;4.82;;;35.20;42.90;;;;;;5036036;28;20396;-86
2023/06/25 11:48:18;;;;;;;5.00;4.50;;;35.50;43.90;;;;;;5033775;28;20122;-88
2023/06/25 11:50:47;;;;;;;4.63;4.22;;;35.60;43.70;;;;;;5030737;28;20052;-87
2023/06/25 11:53:14;;;;;;;5.32;4.82;;;35.80;43.60;;;;;;5033570;28;20045;-88
2023/06/25 11:55:40;;;;;;;5.28;4.78;;;35.50;42.60;;;;;;5048369;28;20059;-88
2023/06/25 11:58:08;;;;;;;7.32;4.97;;;35.50;42.20;;;;;;5042247;28;20108;-88
2023/06/25 12:00:33;;;;;;;5.00;4.55;;;35.80;42.90;;;;;;5036009;28;20090;-89
2023/06/25 12:02:59;;;;;;;6.25;5.03;;;36.10;43.50;;;;;;5031812;28;20037;-88
2023/06/25 12:05:25;;;;;;;5.10;4.70;;;36.30;42.00;;;;;;5033922;28;20029;-88
2023/06/25 12:07:50;;;;;;;4.53;4.15;;;36.20;42.00;;;;;;5033405;28;20131;-88
2023/06/25 12:10:16;;;;;;;4.70;4.40;;;36.40;42.00;;;;;;5032997;28;20114;-87
2023/06/25 12:12:44;;;;;;;4.82;4.50;;;36.60;41.80;;;;;;5049682;28;20051;-87
2023/06/25 12:15:09;;;;;;;5.15;4.75;;;36.80;41.60;;;;;;5036903;28;20045;-88
2023/06/25 12:17:35;;;;;;;5.20;4.80;;;36.80;42.00;;;;;;5053520;28;20111;-88
2023/06/25 12:20:01;;;;;;;5.93;5.28;;;36.70;41.70;;;;;;5036490;28;20120;-88
2023/06/25 12:22:26;;;;;;;4.88;4.55;;;36.80;41.70;;;;;;5036461;28;20120;-88
2023/06/25 12:24:52;;;;;;;4.90;4.50;;;36.90;41.10;;;;;;5037075;28;20091;-88
2023/06/25 12:27:19;;;;;;;5.00;4.60;;;37.00;40.80;;;;;;5042274;28;20041;-88
2023/06/25 12:29:44;;;;;;;4.57;4.18;;;36.90;40.90;;;;;;5052362;28;20045;-89
2023/06/25 12:32:10;;;;;;;5.15;4.75;;;36.60;40.00;;;;;;5047057;28;20506;-88